createdAt,value
2017-05-16T00:00:25.785Z,1016.32
2017-05-16T00:01:06.310Z,1016.28
2017-05-16T00:01:46.826Z,1016.31
2017-05-16T00:02:27.368Z,1016.33
2017-05-16T00:03:07.883Z,1016.31
2017-05-16T00:03:48.392Z,1016.27
2017-05-16T00:04:28.921Z,1016.28
2017-05-16T00:05:09.449Z,1016.28
2017-05-16T00:05:49.980Z,1016.34
2017-05-16T00:06:30.530Z,1016.3
2017-05-16T00:07:11.045Z,1016.28
2017-05-16T00:07:51.571Z,1016.32
2017-05-16T00:08:32.100Z,1016.31
2017-05-16T00:09:12.642Z,1016.27
2017-05-16T00:09:53.157Z,1016.3
2017-05-16T00:10:33.693Z,1016.28
2017-05-16T00:11:14.185Z,1016.26
2017-05-16T00:11:54.691Z,1016.27
2017-05-16T00:12:35.197Z,1016.31
2017-05-16T00:13:15.726Z,1016.26
2017-05-16T00:13:56.267Z,1016.29
2017-05-16T00:14:36.791Z,1016.23
2017-05-16T00:15:17.340Z,1016.25
2017-05-16T00:15:57.844Z,1016.24
2017-05-16T00:16:38.383Z,1016.22
2017-05-16T00:17:18.902Z,1016.23
2017-05-16T00:17:59.419Z,1016.21
2017-05-16T00:18:39.931Z,1016.21
2017-05-16T00:19:20.461Z,1016.21
2017-05-16T00:20:00.998Z,1016.18
2017-05-16T00:20:41.526Z,1016.16
2017-05-16T00:21:22.032Z,1016.19
2017-05-16T00:22:02.558Z,1016.15
2017-05-16T00:22:43.110Z,1016.18
2017-05-16T00:23:23.586Z,1016.12
2017-05-16T00:24:04.108Z,1016.15
2017-05-16T00:24:44.631Z,1016.17
2017-05-16T00:25:25.132Z,1016.14
2017-05-16T00:26:05.651Z,1016.13
2017-05-16T00:26:46.203Z,1016.14
2017-05-16T00:27:26.706Z,1016.11
2017-05-16T00:28:07.230Z,1016.15
2017-05-16T00:28:47.766Z,1016.1
2017-05-16T00:29:28.259Z,1016.12
2017-05-16T00:30:08.795Z,1016.12
2017-05-16T00:30:49.309Z,1016.1
2017-05-16T00:31:29.829Z,1016.14
2017-05-16T00:32:10.396Z,1016.12
2017-05-16T00:32:50.884Z,1016.13
2017-05-16T00:33:31.401Z,1016.11
2017-05-16T00:34:11.905Z,1016.1
2017-05-16T00:34:52.394Z,1016.08
2017-05-16T00:35:32.889Z,1016.14
2017-05-16T00:36:13.421Z,1016.09
2017-05-16T00:36:53.938Z,1016.09
2017-05-16T00:37:34.460Z,1016.12
2017-05-16T00:38:14.986Z,1016.05
2017-05-16T00:38:55.513Z,1016.13
2017-05-16T00:39:36.043Z,1016.01
2017-05-16T00:40:16.562Z,1016.06
2017-05-16T00:40:57.090Z,1016.07
2017-05-16T00:41:37.618Z,1016.06
2017-05-16T00:42:18.132Z,1016.06
2017-05-16T00:42:58.656Z,1016.01
2017-05-16T00:43:39.188Z,1016.03
2017-05-16T00:44:19.708Z,1016.01
2017-05-16T00:45:00.234Z,1016.04
2017-05-16T00:45:40.749Z,1016.07
2017-05-16T00:46:21.280Z,1016.05
2017-05-16T00:47:01.782Z,1016.03
2017-05-16T00:47:42.290Z,1016.08
2017-05-16T00:48:22.806Z,1016
2017-05-16T00:49:03.315Z,1016.04
2017-05-16T00:49:43.837Z,1016.03
2017-05-16T00:50:24.358Z,1016.01
2017-05-16T00:51:04.870Z,1016.03
2017-05-16T00:51:45.394Z,1015.96
2017-05-16T00:52:25.872Z,1015.96
2017-05-16T00:53:06.340Z,1016
2017-05-16T00:53:46.850Z,1016
2017-05-16T00:54:27.370Z,1015.96
2017-05-16T00:55:07.879Z,1016
2017-05-16T00:55:48.401Z,1016.01
2017-05-16T00:56:28.912Z,1016
2017-05-16T00:57:09.447Z,1015.98
2017-05-16T00:57:49.969Z,1016.01
2017-05-16T00:58:30.493Z,1016.01
2017-05-16T00:59:11.011Z,1015.96
2017-05-16T00:59:51.542Z,1015.96
2017-05-16T01:00:32.068Z,1015.98
2017-05-16T01:01:12.589Z,1015.99
2017-05-16T01:01:53.127Z,1016.01
2017-05-16T01:02:33.678Z,1015.97
2017-05-16T01:03:14.191Z,1015.97
2017-05-16T01:03:54.740Z,1015.98
2017-05-16T01:04:35.223Z,1016.02
2017-05-16T01:05:15.803Z,1015.98
2017-05-16T01:05:56.352Z,1015.96
2017-05-16T01:06:36.865Z,1015.99
2017-05-16T01:07:17.404Z,1015.96
2017-05-16T01:07:57.901Z,1015.95
2017-05-16T01:08:38.421Z,1015.97
2017-05-16T01:09:18.996Z,1015.92
2017-05-16T01:09:59.527Z,1015.96
2017-05-16T01:10:40.033Z,1015.98
2017-05-16T01:11:20.547Z,1016
2017-05-16T01:12:01.065Z,1015.94
2017-05-16T01:12:41.608Z,1015.99
2017-05-16T01:13:22.104Z,1015.95
2017-05-16T01:14:02.607Z,1015.99
2017-05-16T01:14:43.120Z,1015.99
2017-05-16T01:15:23.596Z,1015.97
2017-05-16T01:16:04.118Z,1015.95
2017-05-16T01:16:44.630Z,1016.02
2017-05-16T01:17:25.161Z,1016.03
2017-05-16T01:18:05.682Z,1016.01
2017-05-16T01:18:46.209Z,1016
2017-05-16T01:19:26.751Z,1015.95
2017-05-16T01:20:07.271Z,1015.97
2017-05-16T01:20:47.794Z,1015.95
2017-05-16T01:21:28.312Z,1015.96
2017-05-16T01:22:08.826Z,1015.97
2017-05-16T01:22:49.337Z,1015.96
2017-05-16T01:23:29.860Z,1015.92
2017-05-16T01:24:10.386Z,1015.93
2017-05-16T01:24:50.903Z,1015.88
2017-05-16T01:25:31.419Z,1015.9
2017-05-16T01:26:11.959Z,1015.88
2017-05-16T01:26:52.481Z,1015.88
2017-05-16T01:27:32.999Z,1015.86
2017-05-16T01:28:13.514Z,1015.87
2017-05-16T01:28:54.073Z,1015.83
2017-05-16T01:29:34.589Z,1015.83
2017-05-16T01:30:15.097Z,1015.83
2017-05-16T01:30:55.618Z,1015.83
2017-05-16T01:31:36.127Z,1015.82
2017-05-16T01:32:16.626Z,1015.83
2017-05-16T01:32:57.119Z,1015.85
2017-05-16T01:33:37.629Z,1015.81
2017-05-16T01:34:18.145Z,1015.82
2017-05-16T01:34:58.665Z,1015.83
2017-05-16T01:35:39.177Z,1015.79
2017-05-16T01:36:19.718Z,1015.78
2017-05-16T01:37:00.205Z,1015.85
2017-05-16T01:37:40.677Z,1015.81
2017-05-16T01:38:21.191Z,1015.81
2017-05-16T01:39:01.729Z,1015.8
2017-05-16T01:39:42.314Z,1015.83
2017-05-16T01:40:22.849Z,1015.82
2017-05-16T01:41:03.368Z,1015.78
2017-05-16T01:41:43.890Z,1015.8
2017-05-16T01:42:24.412Z,1015.81
2017-05-16T01:43:04.928Z,1015.85
2017-05-16T01:43:45.423Z,1015.81
2017-05-16T01:44:25.913Z,1015.79
2017-05-16T01:45:06.419Z,1015.76
2017-05-16T01:45:46.895Z,1015.75
2017-05-16T01:46:27.389Z,1015.75
2017-05-16T01:47:07.855Z,1015.78
2017-05-16T01:47:48.349Z,1015.73
2017-05-16T01:48:28.879Z,1015.75
2017-05-16T01:49:09.388Z,1015.71
2017-05-16T01:49:49.962Z,1015.75
2017-05-16T01:50:30.411Z,1015.73
2017-05-16T01:51:10.908Z,1015.77
2017-05-16T01:51:51.413Z,1015.76
2017-05-16T01:52:31.912Z,1015.76
2017-05-16T01:53:12.415Z,1015.8
2017-05-16T01:53:52.921Z,1015.74
2017-05-16T01:54:33.424Z,1015.81
2017-05-16T01:55:13.907Z,1015.75
2017-05-16T01:55:54.394Z,1015.79
2017-05-16T01:56:34.936Z,1015.79
2017-05-16T01:57:15.415Z,1015.81
2017-05-16T01:57:55.940Z,1015.72
2017-05-16T01:58:36.452Z,1015.75
2017-05-16T01:59:16.982Z,1015.74
2017-05-16T01:59:57.501Z,1015.76
2017-05-16T02:00:38.021Z,1015.79
2017-05-16T02:01:18.590Z,1015.76
2017-05-16T02:01:59.065Z,1015.77
2017-05-16T02:02:39.590Z,1015.78
2017-05-16T02:03:20.127Z,1015.72
2017-05-16T02:04:00.642Z,1015.73
2017-05-16T02:04:41.154Z,1015.76
2017-05-16T02:05:21.669Z,1015.75
2017-05-16T02:06:02.184Z,1015.74
2017-05-16T02:06:42.733Z,1015.74
2017-05-16T02:07:23.263Z,1015.75
2017-05-16T02:08:03.795Z,1015.73
2017-05-16T02:08:44.318Z,1015.73
2017-05-16T02:09:24.830Z,1015.77
2017-05-16T02:10:05.409Z,1015.77
2017-05-16T02:10:45.927Z,1015.74
2017-05-16T02:11:26.441Z,1015.75
2017-05-16T02:12:06.981Z,1015.73
2017-05-16T02:12:47.504Z,1015.74
2017-05-16T02:13:28.024Z,1015.76
2017-05-16T02:14:08.539Z,1015.73
2017-05-16T02:14:49.058Z,1015.71
2017-05-16T02:15:29.580Z,1015.69
2017-05-16T02:16:10.168Z,1015.71
2017-05-16T02:16:50.706Z,1015.74
2017-05-16T02:17:31.228Z,1015.68
2017-05-16T02:18:11.750Z,1015.71
2017-05-16T02:18:52.276Z,1015.7
2017-05-16T02:19:32.828Z,1015.71
2017-05-16T02:20:13.311Z,1015.75
2017-05-16T02:20:53.834Z,1015.7
2017-05-16T02:21:34.354Z,1015.74
2017-05-16T02:22:14.879Z,1015.71
2017-05-16T02:22:55.396Z,1015.71
2017-05-16T02:23:35.908Z,1015.72
2017-05-16T02:24:16.431Z,1015.72
2017-05-16T02:24:56.959Z,1015.7
2017-05-16T02:25:37.481Z,1015.7
2017-05-16T02:26:17.982Z,1015.76
2017-05-16T02:26:58.498Z,1015.73
2017-05-16T02:27:38.981Z,1015.75
2017-05-16T02:28:19.511Z,1015.75
2017-05-16T02:28:59.971Z,1015.74
2017-05-16T02:29:40.522Z,1015.75
2017-05-16T02:30:20.996Z,1015.73
2017-05-16T02:31:01.477Z,1015.75
2017-05-16T02:31:42.021Z,1015.75
2017-05-16T02:32:22.481Z,1015.73
2017-05-16T02:33:03.000Z,1015.74
2017-05-16T02:33:43.518Z,1015.67
2017-05-16T02:34:24.040Z,1015.7
2017-05-16T02:35:04.607Z,1015.7
2017-05-16T02:35:45.136Z,1015.7
2017-05-16T02:36:25.657Z,1015.69
2017-05-16T02:37:06.170Z,1015.69
2017-05-16T02:37:46.683Z,1015.74
2017-05-16T02:38:27.218Z,1015.69
2017-05-16T02:39:07.705Z,1015.72
2017-05-16T02:39:48.218Z,1015.71
2017-05-16T02:40:28.722Z,1015.75
2017-05-16T02:41:09.235Z,1015.76
2017-05-16T02:41:49.751Z,1015.76
2017-05-16T02:42:30.259Z,1015.78
2017-05-16T02:43:10.781Z,1015.78
2017-05-16T02:43:51.319Z,1015.77
2017-05-16T02:44:31.840Z,1015.79
2017-05-16T02:45:12.403Z,1015.78
2017-05-16T02:45:52.929Z,1015.76
2017-05-16T02:46:33.449Z,1015.79
2017-05-16T02:47:13.948Z,1015.79
2017-05-16T02:47:54.468Z,1015.79
2017-05-16T02:48:34.995Z,1015.78
2017-05-16T02:49:15.519Z,1015.79
2017-05-16T02:49:56.041Z,1015.8
2017-05-16T02:50:36.594Z,1015.82
2017-05-16T02:51:17.088Z,1015.73
2017-05-16T02:51:57.612Z,1015.8
2017-05-16T02:52:38.128Z,1015.77
2017-05-16T02:53:18.657Z,1015.74
2017-05-16T02:53:59.179Z,1015.76
2017-05-16T02:54:39.707Z,1015.76
2017-05-16T02:55:20.209Z,1015.74
2017-05-16T02:56:00.728Z,1015.78
2017-05-16T02:56:41.244Z,1015.74
2017-05-16T02:57:21.751Z,1015.76
2017-05-16T02:58:02.264Z,1015.78
2017-05-16T02:58:42.764Z,1015.74
2017-05-16T02:59:23.294Z,1015.73
2017-05-16T03:00:03.823Z,1015.75
2017-05-16T03:00:44.350Z,1015.72
2017-05-16T03:01:24.863Z,1015.68
2017-05-16T03:02:05.372Z,1015.72
2017-05-16T03:02:45.885Z,1015.72
2017-05-16T03:03:26.405Z,1015.72
2017-05-16T03:05:24.570Z,1015.69
2017-05-16T03:06:05.102Z,1015.69
2017-05-16T03:06:45.629Z,1015.74
2017-05-16T03:07:26.142Z,1015.71
2017-05-16T03:08:06.662Z,1015.75
2017-05-16T03:08:47.179Z,1015.71
2017-05-16T03:09:27.690Z,1015.68
2017-05-16T03:10:08.207Z,1015.69
2017-05-16T03:10:48.735Z,1015.7
2017-05-16T03:11:29.257Z,1015.67
2017-05-16T03:12:09.787Z,1015.74
2017-05-16T03:12:50.306Z,1015.72
2017-05-16T03:13:30.809Z,1015.7
2017-05-16T03:14:11.340Z,1015.75
2017-05-16T03:14:51.854Z,1015.7
2017-05-16T03:15:32.375Z,1015.68
2017-05-16T03:16:12.892Z,1015.71
2017-05-16T03:16:53.437Z,1015.71
2017-05-16T03:17:33.951Z,1015.67
2017-05-16T03:18:14.467Z,1015.68
2017-05-16T03:18:54.984Z,1015.75
2017-05-16T03:19:35.508Z,1015.72
2017-05-16T03:20:16.032Z,1015.73
2017-05-16T03:20:56.544Z,1015.74
2017-05-16T03:21:37.067Z,1015.7
2017-05-16T03:22:17.590Z,1015.73
2017-05-16T03:22:58.110Z,1015.74
2017-05-16T03:23:38.618Z,1015.71
2017-05-16T03:24:19.135Z,1015.76
2017-05-16T03:24:59.647Z,1015.73
2017-05-16T03:25:40.178Z,1015.74
2017-05-16T03:26:20.686Z,1015.74
2017-05-16T03:27:01.210Z,1015.77
2017-05-16T03:27:41.726Z,1015.75
2017-05-16T03:28:22.265Z,1015.71
2017-05-16T03:29:02.786Z,1015.72
2017-05-16T03:29:43.312Z,1015.73
2017-05-16T03:30:23.823Z,1015.74
2017-05-16T03:31:04.334Z,1015.75
2017-05-16T03:31:44.848Z,1015.76
2017-05-16T03:32:25.368Z,1015.77
2017-05-16T03:33:05.879Z,1015.75
2017-05-16T03:33:46.397Z,1015.74
2017-05-16T03:34:26.907Z,1015.76
2017-05-16T03:35:07.422Z,1015.76
2017-05-16T03:35:47.949Z,1015.77
2017-05-16T03:36:28.490Z,1015.76
2017-05-16T03:37:09.010Z,1015.75
2017-05-16T03:37:49.522Z,1015.8
2017-05-16T03:38:30.040Z,1015.77
2017-05-16T03:39:10.556Z,1015.8
2017-05-16T03:39:51.069Z,1015.79
2017-05-16T03:40:31.601Z,1015.74
2017-05-16T03:41:12.114Z,1015.79
2017-05-16T03:41:52.631Z,1015.84
2017-05-16T03:42:33.149Z,1015.81
2017-05-16T03:43:13.664Z,1015.84
2017-05-16T03:43:54.190Z,1015.81
2017-05-16T03:44:34.711Z,1015.79
2017-05-16T03:45:15.234Z,1015.82
2017-05-16T03:45:55.767Z,1015.84
2017-05-16T03:46:36.284Z,1015.87
2017-05-16T03:47:16.801Z,1015.85
2017-05-16T03:47:57.321Z,1015.87
2017-05-16T03:48:37.857Z,1015.82
2017-05-16T03:49:18.373Z,1015.81
2017-05-16T03:49:58.896Z,1015.84
2017-05-16T03:50:39.430Z,1015.85
2017-05-16T03:51:19.971Z,1015.84
2017-05-16T03:52:00.480Z,1015.9
2017-05-16T03:52:40.997Z,1015.86
2017-05-16T03:53:21.521Z,1015.87
2017-05-16T03:54:02.037Z,1015.85
2017-05-16T03:54:42.546Z,1015.85
2017-05-16T03:55:23.072Z,1015.86
2017-05-16T03:56:03.595Z,1015.88
2017-05-16T03:56:44.105Z,1015.95
2017-05-16T03:57:24.618Z,1015.92
2017-05-16T03:58:05.137Z,1015.92
2017-05-16T03:58:45.650Z,1015.95
2017-05-16T03:59:26.155Z,1015.93
2017-05-16T04:00:06.675Z,1015.92
2017-05-16T04:00:47.193Z,1015.94
2017-05-16T04:01:27.725Z,1015.99
2017-05-16T04:02:08.235Z,1015.91
2017-05-16T04:02:48.765Z,1015.92
2017-05-16T04:03:29.268Z,1015.99
2017-05-16T04:04:09.800Z,1015.98
2017-05-16T04:04:50.323Z,1015.98
2017-05-16T04:05:30.822Z,1015.98
2017-05-16T04:06:11.344Z,1015.98
2017-05-16T04:06:51.875Z,1016
2017-05-16T04:07:32.391Z,1016
2017-05-16T04:08:12.910Z,1015.98
2017-05-16T04:08:53.426Z,1016
2017-05-16T04:09:33.929Z,1016.05
2017-05-16T04:10:14.455Z,1016.01
2017-05-16T04:10:54.962Z,1016.02
2017-05-16T04:11:35.464Z,1016.01
2017-05-16T04:12:15.975Z,1015.99
2017-05-16T04:12:56.494Z,1016.03
2017-05-16T04:13:37.001Z,1016.04
2017-05-16T04:14:17.530Z,1016.06
2017-05-16T04:14:58.054Z,1016.03
2017-05-16T04:15:38.573Z,1016.08
2017-05-16T04:16:19.098Z,1016.05
2017-05-16T04:16:59.608Z,1016.08
2017-05-16T04:17:40.139Z,1016.06
2017-05-16T04:18:20.662Z,1016.05
2017-05-16T04:19:01.216Z,1016.08
2017-05-16T04:19:41.728Z,1016.04
2017-05-16T04:20:22.278Z,1016.06
2017-05-16T04:21:02.768Z,1016.07
2017-05-16T04:21:43.280Z,1016.07
2017-05-16T04:22:23.790Z,1016.09
2017-05-16T04:23:04.317Z,1016.06
2017-05-16T04:23:44.830Z,1016.05
2017-05-16T04:24:25.348Z,1016.07
2017-05-16T04:25:05.874Z,1016.08
2017-05-16T04:25:46.384Z,1016.08
2017-05-16T04:26:26.898Z,1016.14
2017-05-16T04:27:07.411Z,1016.15
2017-05-16T04:27:47.929Z,1016.14
2017-05-16T04:28:28.453Z,1016.12
2017-05-16T04:29:08.982Z,1016.17
2017-05-16T04:29:49.498Z,1016.12
2017-05-16T04:30:30.013Z,1016.13
2017-05-16T04:31:10.535Z,1016.14
2017-05-16T04:31:51.050Z,1016.13
2017-05-16T04:32:31.582Z,1016.17
2017-05-16T04:33:12.116Z,1016.13
2017-05-16T04:33:52.634Z,1016.15
2017-05-16T04:34:33.163Z,1016.13
2017-05-16T04:35:13.677Z,1016.12
2017-05-16T04:35:54.183Z,1016.1
2017-05-16T04:36:34.709Z,1016.12
2017-05-16T04:37:15.229Z,1016.16
2017-05-16T04:37:55.740Z,1016.14
2017-05-16T04:38:36.268Z,1016.12
2017-05-16T04:39:16.795Z,1016.09
2017-05-16T04:39:57.311Z,1016.06
2017-05-16T04:40:37.847Z,1016.1
2017-05-16T04:41:18.355Z,1016.1
2017-05-16T04:41:58.870Z,1016.08
2017-05-16T04:42:39.388Z,1016.1
2017-05-16T04:43:19.948Z,1016.1
2017-05-16T04:44:00.460Z,1016.08
2017-05-16T04:44:40.976Z,1016.1
2017-05-16T04:45:21.497Z,1016.09
2017-05-16T04:46:02.014Z,1016.12
2017-05-16T04:46:42.543Z,1016.09
2017-05-16T04:47:23.151Z,1016.12
2017-05-16T04:48:03.608Z,1016.11
2017-05-16T04:48:44.122Z,1016.1
2017-05-16T04:49:24.748Z,1016.12
2017-05-16T04:50:05.192Z,1016.11
2017-05-16T04:50:45.702Z,1016.12
2017-05-16T04:51:26.155Z,1016.13
2017-05-16T04:52:06.910Z,1016.16
2017-05-16T04:52:47.291Z,1016.18
2017-05-16T04:53:27.720Z,1016.18
2017-05-16T04:54:08.233Z,1016.16
2017-05-16T04:54:48.704Z,1016.15
2017-05-16T04:55:29.251Z,1016.16
2017-05-16T04:56:09.793Z,1016.12
2017-05-16T04:56:50.283Z,1016.17
2017-05-16T04:57:30.794Z,1016.14
2017-05-16T04:58:11.313Z,1016.13
2017-05-16T04:58:51.846Z,1016.17
2017-05-16T04:59:32.346Z,1016.17
2017-05-16T05:00:12.782Z,1016.18
2017-05-16T05:00:53.336Z,1016.18
2017-05-16T05:01:33.804Z,1016.17
2017-05-16T05:02:14.277Z,1016.19
2017-05-16T05:02:54.952Z,1016.17
2017-05-16T05:03:35.416Z,1016.16
2017-05-16T05:04:15.914Z,1016.21
2017-05-16T05:04:56.487Z,1016.21
2017-05-16T05:05:36.997Z,1016.19
2017-05-16T05:06:17.485Z,1016.18
2017-05-16T05:06:57.965Z,1016.2
2017-05-16T05:07:38.491Z,1016.2
2017-05-16T05:08:18.976Z,1016.22
2017-05-16T05:08:59.445Z,1016.23
2017-05-16T05:09:39.930Z,1016.21
2017-05-16T05:10:20.410Z,1016.22
2017-05-16T05:11:00.886Z,1016.19
2017-05-16T05:11:41.397Z,1016.22
2017-05-16T05:12:21.924Z,1016.24
2017-05-16T05:13:02.514Z,1016.22
2017-05-16T05:13:42.999Z,1016.27
2017-05-16T05:14:23.490Z,1016.26
2017-05-16T05:15:04.050Z,1016.22
2017-05-16T05:15:44.543Z,1016.23
2017-05-16T05:16:24.997Z,1016.24
2017-05-16T05:17:05.484Z,1016.24
2017-05-16T05:17:45.967Z,1016.25
2017-05-16T05:18:27.092Z,1016.25
2017-05-16T05:19:07.583Z,1016.23
2017-05-16T05:19:48.716Z,1016.26
2017-05-16T05:20:29.203Z,1016.27
2017-05-16T05:21:09.875Z,1016.23
2017-05-16T05:21:50.197Z,1016.29
2017-05-16T05:22:30.729Z,1016.3
2017-05-16T05:23:11.232Z,1016.28
2017-05-16T05:23:52.018Z,1016.29
2017-05-16T05:24:32.473Z,1016.31
2017-05-16T05:25:12.982Z,1016.3
2017-05-16T05:25:54.400Z,1016.28
2017-05-16T05:26:34.897Z,1016.27
2017-05-16T05:27:15.371Z,1016.27
2017-05-16T05:27:56.079Z,1016.28
2017-05-16T05:28:36.582Z,1016.31
2017-05-16T05:29:17.140Z,1016.29
2017-05-16T05:29:57.614Z,1016.31
2017-05-16T05:30:38.178Z,1016.31
2017-05-16T05:31:18.648Z,1016.32
2017-05-16T05:31:59.140Z,1016.35
2017-05-16T05:32:40.615Z,1016.34
2017-05-16T05:33:20.920Z,1016.34
2017-05-16T05:34:01.455Z,1016.33
2017-05-16T05:34:41.965Z,1016.35
2017-05-16T05:35:22.466Z,1016.34
2017-05-16T05:36:03.179Z,1016.35
2017-05-16T05:36:43.772Z,1016.37
2017-05-16T05:37:24.464Z,1016.38
2017-05-16T05:38:06.038Z,1016.32
2017-05-16T05:38:46.481Z,1016.35
2017-05-16T05:39:27.008Z,1016.41
2017-05-16T05:40:07.533Z,1016.34
2017-05-16T05:40:48.029Z,1016.34
2017-05-16T05:41:28.553Z,1016.38
2017-05-16T05:42:09.121Z,1016.35
2017-05-16T05:42:49.699Z,1016.41
2017-05-16T05:43:30.537Z,1016.41
2017-05-16T05:44:11.118Z,1016.38
2017-05-16T05:44:51.605Z,1016.38
2017-05-16T05:45:32.358Z,1016.42
2017-05-16T05:46:12.997Z,1016.41
2017-05-16T05:46:54.329Z,1016.4
2017-05-16T05:47:34.821Z,1016.43
2017-05-16T05:48:15.338Z,1016.45
2017-05-16T05:48:55.810Z,1016.42
2017-05-16T05:49:36.315Z,1016.44
2017-05-16T05:50:16.850Z,1016.46
2017-05-16T05:50:57.323Z,1016.45
2017-05-16T05:51:37.777Z,1016.44
2017-05-16T05:52:18.295Z,1016.46
2017-05-16T05:52:58.830Z,1016.46
2017-05-16T05:53:39.343Z,1016.41
2017-05-16T05:54:19.830Z,1016.42
2017-05-16T05:55:00.341Z,1016.44
2017-05-16T05:55:40.853Z,1016.37
2017-05-16T05:56:21.341Z,1016.4
2017-05-16T05:57:01.825Z,1016.43
2017-05-16T05:57:42.333Z,1016.43
2017-05-16T05:58:22.932Z,1016.4
2017-05-16T05:59:03.475Z,1016.42
2017-05-16T05:59:43.937Z,1016.42
2017-05-16T06:00:24.439Z,1016.46
2017-05-16T06:01:04.951Z,1016.41
2017-05-16T06:01:45.466Z,1016.43
2017-05-16T06:02:25.950Z,1016.41
2017-05-16T06:03:06.496Z,1016.43
2017-05-16T06:03:47.028Z,1016.46
2017-05-16T06:04:27.495Z,1016.44
2017-05-16T06:05:07.995Z,1016.42
2017-05-16T06:05:48.499Z,1016.41
2017-05-16T06:06:29.032Z,1016.42
2017-05-16T06:07:09.443Z,1016.35
2017-05-16T06:07:49.932Z,1016.39
2017-05-16T06:08:30.465Z,1016.41
2017-05-16T06:09:10.949Z,1016.44
2017-05-16T06:09:51.441Z,1016.42
2017-05-16T06:10:31.938Z,1016.4
2017-05-16T06:11:12.490Z,1016.41
2017-05-16T06:11:52.908Z,1016.43
2017-05-16T06:12:33.407Z,1016.44
2017-05-16T06:13:13.939Z,1016.47
2017-05-16T06:13:54.602Z,1016.42
2017-05-16T06:14:35.385Z,1016.47
2017-05-16T06:15:15.896Z,1016.49
2017-05-16T06:15:56.368Z,1016.46
2017-05-16T06:16:36.854Z,1016.54
2017-05-16T06:17:17.349Z,1016.53
2017-05-16T06:17:57.842Z,1016.52
2017-05-16T06:18:38.339Z,1016.5
2017-05-16T06:19:18.838Z,1016.52
2017-05-16T06:19:59.302Z,1016.53
2017-05-16T06:20:39.806Z,1016.55
2017-05-16T06:21:20.338Z,1016.56
2017-05-16T06:22:00.824Z,1016.57
2017-05-16T06:22:41.333Z,1016.62
2017-05-16T06:23:21.834Z,1016.61
2017-05-16T06:24:02.317Z,1016.65
2017-05-16T06:24:42.861Z,1016.63
2017-05-16T06:25:23.312Z,1016.63
2017-05-16T06:26:03.839Z,1016.64
2017-05-16T06:26:44.296Z,1016.65
2017-05-16T06:27:24.806Z,1016.65
2017-05-16T06:28:05.327Z,1016.68
2017-05-16T06:28:46.639Z,1016.65
2017-05-16T06:29:26.356Z,1016.68
2017-05-16T06:30:06.872Z,1016.68
2017-05-16T06:30:47.379Z,1016.7
2017-05-16T06:31:27.860Z,1016.66
2017-05-16T06:32:08.398Z,1016.68
2017-05-16T06:32:49.084Z,1016.67
2017-05-16T06:33:29.575Z,1016.67
2017-05-16T06:34:10.091Z,1016.65
2017-05-16T06:34:50.588Z,1016.65
2017-05-16T06:35:31.059Z,1016.65
2017-05-16T06:36:11.603Z,1016.64
2017-05-16T06:36:52.088Z,1016.65
2017-05-16T06:37:32.611Z,1016.65
2017-05-16T06:38:13.072Z,1016.71
2017-05-16T06:38:53.540Z,1016.67
2017-05-16T06:39:34.069Z,1016.67
2017-05-16T06:40:14.940Z,1016.65
2017-05-16T06:40:55.494Z,1016.65
2017-05-16T06:41:36.848Z,1016.64
2017-05-16T06:42:17.338Z,1016.66
2017-05-16T06:42:57.818Z,1016.61
2017-05-16T06:43:38.390Z,1016.63
2017-05-16T06:44:19.363Z,1016.64
2017-05-16T06:44:59.845Z,1016.61
2017-05-16T06:45:40.311Z,1016.66
2017-05-16T06:46:20.857Z,1016.64
2017-05-16T06:47:01.366Z,1016.62
2017-05-16T06:47:41.842Z,1016.64
2017-05-16T06:48:22.356Z,1016.62
2017-05-16T06:49:02.847Z,1016.66
2017-05-16T06:49:43.334Z,1016.65
2017-05-16T06:50:23.822Z,1016.64
2017-05-16T06:51:04.346Z,1016.65
2017-05-16T06:51:44.872Z,1016.68
2017-05-16T06:52:25.410Z,1016.67
2017-05-16T06:53:05.900Z,1016.67
2017-05-16T06:53:46.393Z,1016.63
2017-05-16T06:54:26.853Z,1016.65
2017-05-16T06:55:07.436Z,1016.64
2017-05-16T06:55:47.887Z,1016.65
2017-05-16T06:56:28.398Z,1016.65
2017-05-16T06:57:08.871Z,1016.63
2017-05-16T06:57:49.359Z,1016.65
2017-05-16T06:58:29.893Z,1016.67
2017-05-16T06:59:10.423Z,1016.64
2017-05-16T06:59:50.880Z,1016.67
2017-05-16T07:00:31.358Z,1016.65
2017-05-16T07:01:11.831Z,1016.64
2017-05-16T07:01:52.361Z,1016.6
2017-05-16T07:02:32.873Z,1016.61
2017-05-16T07:03:13.326Z,1016.63
2017-05-16T07:03:53.838Z,1016.65
2017-05-16T07:04:34.297Z,1016.69
2017-05-16T07:05:14.814Z,1016.62
2017-05-16T07:05:55.290Z,1016.59
2017-05-16T07:06:35.788Z,1016.63
2017-05-16T07:07:16.349Z,1016.57
2017-05-16T07:07:56.824Z,1016.64
2017-05-16T07:08:37.287Z,1016.61
2017-05-16T07:09:17.796Z,1016.57
2017-05-16T07:09:58.283Z,1016.62
2017-05-16T07:10:39.021Z,1016.64
2017-05-16T07:11:19.293Z,1016.61
2017-05-16T07:11:59.884Z,1016.63
2017-05-16T07:12:40.245Z,1016.65
2017-05-16T07:13:20.789Z,1016.62
2017-05-16T07:14:01.274Z,1016.61
2017-05-16T07:14:41.763Z,1016.63
2017-05-16T07:15:22.274Z,1016.64
2017-05-16T07:16:02.780Z,1016.59
2017-05-16T07:16:43.293Z,1016.62
2017-05-16T07:17:23.789Z,1016.59
2017-05-16T07:18:04.313Z,1016.6
2017-05-16T07:18:44.786Z,1016.62
2017-05-16T07:19:25.305Z,1016.65
2017-05-16T07:20:05.767Z,1016.63
2017-05-16T07:20:46.298Z,1016.6
2017-05-16T07:21:26.785Z,1016.65
2017-05-16T07:22:07.343Z,1016.61
2017-05-16T07:22:47.810Z,1016.62
2017-05-16T07:23:28.297Z,1016.6
2017-05-16T07:24:08.821Z,1016.59
2017-05-16T07:24:49.317Z,1016.59
2017-05-16T07:25:29.855Z,1016.58
2017-05-16T07:26:10.387Z,1016.58
2017-05-16T07:26:50.900Z,1016.64
2017-05-16T07:27:31.383Z,1016.58
2017-05-16T07:28:11.925Z,1016.61
2017-05-16T07:28:52.413Z,1016.64
2017-05-16T07:29:32.960Z,1016.58
2017-05-16T07:30:13.471Z,1016.63
2017-05-16T07:30:54.019Z,1016.59
2017-05-16T07:31:34.481Z,1016.6
2017-05-16T07:32:14.980Z,1016.6
2017-05-16T07:32:55.471Z,1016.63
2017-05-16T07:33:36.032Z,1016.63
2017-05-16T07:34:16.530Z,1016.58
2017-05-16T07:34:57.057Z,1016.59
2017-05-16T07:35:37.550Z,1016.63
2017-05-16T07:36:18.053Z,1016.61
2017-05-16T07:36:58.558Z,1016.62
2017-05-16T07:37:39.078Z,1016.61
2017-05-16T07:38:19.579Z,1016.56
2017-05-16T07:39:00.028Z,1016.58
2017-05-16T07:39:40.519Z,1016.6
2017-05-16T07:40:21.018Z,1016.61
2017-05-16T07:41:01.517Z,1016.59
2017-05-16T07:41:42.254Z,1016.57
2017-05-16T07:42:22.543Z,1016.57
2017-05-16T07:43:03.047Z,1016.58
2017-05-16T07:43:43.539Z,1016.56
2017-05-16T07:44:24.024Z,1016.59
2017-05-16T07:45:04.513Z,1016.59
2017-05-16T07:45:45.043Z,1016.58
2017-05-16T07:46:25.621Z,1016.61
2017-05-16T07:47:06.074Z,1016.6
2017-05-16T07:47:46.609Z,1016.56
2017-05-16T07:48:27.117Z,1016.56
2017-05-16T07:49:07.576Z,1016.58
2017-05-16T07:49:48.101Z,1016.54
2017-05-16T07:50:28.621Z,1016.53
2017-05-16T07:51:09.122Z,1016.55
2017-05-16T07:51:49.613Z,1016.53
2017-05-16T07:52:30.114Z,1016.54
2017-05-16T07:53:10.766Z,1016.48
2017-05-16T07:53:51.098Z,1016.51
2017-05-16T07:54:31.582Z,1016.51
2017-05-16T07:55:12.092Z,1016.47
2017-05-16T07:55:52.613Z,1016.47
2017-05-16T07:56:33.111Z,1016.49
2017-05-16T07:57:13.604Z,1016.46
2017-05-16T07:57:54.160Z,1016.45
2017-05-16T07:58:34.609Z,1016.4
2017-05-16T07:59:15.075Z,1016.43
2017-05-16T07:59:55.545Z,1016.43
2017-05-16T08:00:36.117Z,1016.46
2017-05-16T08:01:16.740Z,1016.44
2017-05-16T08:01:57.212Z,1016.38
2017-05-16T08:02:37.741Z,1016.46
2017-05-16T08:03:18.234Z,1016.47
2017-05-16T08:03:58.658Z,1016.45
2017-05-16T08:04:39.249Z,1016.46
2017-05-16T08:05:19.705Z,1016.46
2017-05-16T08:06:00.222Z,1016.47
2017-05-16T08:06:40.917Z,1016.47
2017-05-16T08:07:21.204Z,1016.45
2017-05-16T08:08:01.754Z,1016.48
2017-05-16T08:08:42.180Z,1016.53
2017-05-16T08:09:22.659Z,1016.53
2017-05-16T08:10:03.155Z,1016.51
2017-05-16T08:10:43.661Z,1016.51
2017-05-16T08:11:24.149Z,1016.51
2017-05-16T08:12:04.635Z,1016.46
2017-05-16T08:12:45.171Z,1016.49
2017-05-16T08:13:25.615Z,1016.48